createdAt,value
2019-04-14T00:02:33.646Z,102332.86
2019-04-14T00:05:03.886Z,102328.84
2019-04-14T00:07:31.892Z,102330.52
2019-04-14T00:09:58.983Z,102327.93
2019-04-14T00:12:27.255Z,102323.26
2019-04-14T00:14:55.450Z,102325.08
2019-04-14T00:17:23.588Z,102319.62
2019-04-14T00:19:50.875Z,102314.70
2019-04-14T00:22:18.404Z,102318.20
2019-04-14T00:24:46.639Z,102319.11
2019-04-14T00:27:14.875Z,102321.06
2019-04-14T00:29:42.041Z,102318.34
2019-04-14T00:32:09.550Z,102312.89
2019-04-14T00:34:50.816Z,102309.39
2019-04-14T00:37:46.723Z,102306.02
2019-04-14T00:40:27.087Z,102300.05
2019-04-14T00:43:19.975Z,102307.30
2019-04-14T00:45:55.076Z,102306.64
2019-04-14T00:48:24.287Z,102302.20
2019-04-14T00:50:52.411Z,102307.11
2019-04-14T00:53:20.567Z,102306.19
2019-04-14T00:55:48.921Z,102298.00
2019-04-14T00:58:17.066Z,102300.84
2019-04-14T01:00:45.130Z,102294.45
2019-04-14T01:03:13.375Z,102300.27
2019-04-14T01:05:41.516Z,102298.04
2019-04-14T01:08:09.652Z,102297.35
2019-04-14T01:10:39.007Z,102297.06
2019-04-14T01:13:11.119Z,102300.53
2019-04-14T01:15:49.224Z,102297.00
2019-04-14T01:18:07.915Z,102298.52
2019-04-14T01:20:36.305Z,102299.42
2019-04-14T01:23:04.194Z,102291.48
2019-04-14T01:25:36.774Z,102300.55
2019-04-14T01:28:04.662Z,102302.20
2019-04-14T01:30:37.604Z,102301.53
2019-04-14T01:33:05.432Z,102307.09
2019-04-14T01:35:33.486Z,102302.13
2019-04-14T01:38:01.624Z,102305.52
2019-04-14T01:40:29.278Z,102309.77
2019-04-14T01:42:57.310Z,102302.25
2019-04-14T01:45:25.346Z,102304.30
2019-04-14T01:47:53.349Z,102304.70
2019-04-14T01:50:23.533Z,102305.84
2019-04-14T01:52:57.306Z,102302.97
2019-04-14T01:55:50.496Z,102300.72
2019-04-14T01:58:20.752Z,102302.14
2019-04-14T02:00:55.401Z,102309.27
2019-04-14T02:03:23.778Z,102309.62
2019-04-14T02:05:51.712Z,102307.66
2019-04-14T02:08:19.819Z,102307.77
2019-04-14T02:10:47.863Z,102302.73
2019-04-14T02:13:15.705Z,102307.81
2019-04-14T02:15:44.161Z,102308.48
2019-04-14T02:18:12.133Z,102306.43
2019-04-14T02:20:40.785Z,102304.54
2019-04-14T02:23:08.264Z,102306.42
2019-04-14T02:25:36.067Z,102307.00
2019-04-14T02:28:03.133Z,102311.23
2019-04-14T02:30:36.208Z,102313.70
2019-04-14T02:33:32.147Z,102317.00
2019-04-14T02:36:06.317Z,102318.03
2019-04-14T02:38:36.065Z,102313.98
2019-04-14T02:41:13.703Z,102313.56
2019-04-14T02:43:25.796Z,102311.75
2019-04-14T02:45:50.490Z,102311.23
2019-04-14T02:50:51.497Z,102309.72
2019-04-14T02:55:48.948Z,102318.49
2019-04-14T02:58:20.263Z,102315.02
2019-04-14T03:03:15.994Z,102328.02
2019-04-14T03:05:45.041Z,102323.34
2019-04-14T03:08:11.414Z,102322.58
2019-04-14T03:10:41.371Z,102321.70
2019-04-14T03:13:13.090Z,102316.00
2019-04-14T03:18:33.934Z,102315.28
2019-04-14T03:21:13.449Z,102312.31
2019-04-14T03:23:51.894Z,102317.00
2019-04-14T03:26:21.238Z,102319.88
2019-04-14T03:28:51.707Z,102320.66
2019-04-14T03:31:53.684Z,102330.14
2019-04-14T03:34:17.583Z,102324.58
2019-04-14T03:37:11.398Z,102335.08
2019-04-14T03:43:41.787Z,102333.54
2019-04-14T03:51:16.773Z,102343.09
2019-04-14T03:53:42.835Z,102337.39
2019-04-14T03:56:24.529Z,102331.59
2019-04-14T03:58:51.641Z,102328.23
2019-04-14T04:01:19.333Z,102332.73
2019-04-14T04:03:46.485Z,102332.86
2019-04-14T04:06:13.951Z,102335.58
2019-04-14T04:08:42.021Z,102329.88
2019-04-14T04:11:10.455Z,102336.22
2019-04-14T04:13:37.683Z,102338.55
2019-04-14T04:16:13.908Z,102332.59
2019-04-14T04:18:50.939Z,102337.25
2019-04-14T04:21:35.620Z,102336.08
2019-04-14T04:24:35.142Z,102342.68
2019-04-14T04:27:24.647Z,102337.11
2019-04-14T04:30:14.413Z,102342.14
2019-04-14T04:32:51.916Z,102336.18
2019-04-14T04:35:30.340Z,102343.03
2019-04-14T04:38:18.103Z,102343.27
2019-04-14T04:40:46.138Z,102349.08
2019-04-14T04:43:13.226Z,102353.97
2019-04-14T04:45:40.890Z,102357.84
2019-04-14T04:48:08.946Z,102360.16
2019-04-14T04:50:36.852Z,102362.86
2019-04-14T04:53:04.805Z,102361.68
2019-04-14T04:55:32.903Z,102364.41
2019-04-14T04:58:01.267Z,102367.13
2019-04-14T05:00:28.781Z,102363.91
2019-04-14T05:02:57.061Z,102361.20
2019-04-14T05:06:00.426Z,102361.22
2019-04-14T05:08:28.388Z,102365.51
2019-04-14T05:11:05.459Z,102370.57
2019-04-14T05:13:36.054Z,102370.84
2019-04-14T05:16:04.185Z,102371.11
2019-04-14T05:18:31.390Z,102369.70
2019-04-14T05:20:59.518Z,102369.83
2019-04-14T05:23:27.777Z,102372.16
2019-04-14T05:25:55.938Z,102376.59
2019-04-14T05:28:24.398Z,102370.13
2019-04-14T05:30:52.541Z,102377.78
2019-04-14T05:33:20.723Z,102379.74
2019-04-14T05:35:48.875Z,102385.45
2019-04-14T05:38:16.937Z,102386.37
2019-04-14T05:40:45.076Z,102386.52
2019-04-14T05:43:13.391Z,102390.92
2019-04-14T05:45:41.649Z,102384.31
2019-04-14T05:48:09.743Z,102388.77
2019-04-14T05:50:37.936Z,102381.77
2019-04-14T05:53:06.415Z,102385.39
2019-04-14T05:55:35.140Z,102394.60
2019-04-14T05:58:03.520Z,102393.56
2019-04-14T06:00:31.986Z,102397.17
2019-04-14T06:02:59.498Z,102391.45
2019-04-14T06:05:27.487Z,102391.19
2019-04-14T06:07:55.597Z,102388.56
2019-04-14T06:10:22.759Z,102386.83
2019-04-14T06:12:49.868Z,102396.52
2019-04-14T06:15:16.907Z,102398.92
2019-04-14T06:17:44.276Z,102401.39
2019-04-14T06:20:17.114Z,102405.27
2019-04-14T06:22:44.423Z,102407.57
2019-04-14T06:25:11.503Z,102406.09
2019-04-14T06:27:44.397Z,102411.12
2019-04-14T06:30:34.158Z,102413.41
2019-04-14T06:33:06.637Z,102408.16
2019-04-14T06:35:47.389Z,102408.45
2019-04-14T06:38:39.866Z,102402.23
2019-04-14T06:41:24.999Z,102402.38
2019-04-14T06:43:52.042Z,102399.61
2019-04-14T06:46:19.116Z,102395.88
2019-04-14T06:48:46.192Z,102399.06
2019-04-14T06:51:13.235Z,102394.47
2019-04-14T06:53:40.283Z,102397.02
2019-04-14T06:56:08.030Z,102398.67
2019-04-14T06:58:35.099Z,102399.86
2019-04-14T07:01:02.329Z,102401.27
2019-04-14T07:03:29.674Z,102399.89
2019-04-14T07:05:56.735Z,102403.14
2019-04-14T07:08:23.798Z,102408.44
2019-04-14T07:10:50.900Z,102403.27
2019-04-14T07:13:19.679Z,102401.27
2019-04-14T07:15:46.887Z,102412.94
2019-04-14T07:18:13.955Z,102408.37
2019-04-14T07:20:41.026Z,102408.30
2019-04-14T07:23:08.121Z,102401.05
2019-04-14T07:25:35.203Z,102406.70
2019-04-14T07:28:02.288Z,102404.60
2019-04-14T07:30:44.504Z,102405.11
2019-04-14T07:33:37.118Z,102407.06
2019-04-14T07:36:19.910Z,102405.88
2019-04-14T07:38:55.058Z,102405.61
2019-04-14T07:41:30.367Z,102419.73
2019-04-14T07:44:01.968Z,102416.56
2019-04-14T07:46:41.689Z,102409.95
2019-04-14T07:49:28.373Z,102411.27
2019-04-14T07:52:15.002Z,102408.49
2019-04-14T07:54:51.919Z,102413.13
2019-04-14T07:57:37.305Z,102416.15
2019-04-14T08:00:23.729Z,102421.28
2019-04-14T08:02:54.765Z,102420.70
2019-04-14T08:05:27.373Z,102412.66
2019-04-14T08:07:54.447Z,102415.88
2019-04-14T08:10:21.566Z,102418.52
2019-04-14T08:12:48.674Z,102414.78
2019-04-14T08:15:15.877Z,102421.30
2019-04-14T08:17:43.717Z,102424.11
2019-04-14T08:20:26.473Z,102421.19
2019-04-14T08:22:43.055Z,102423.39
2019-04-14T08:25:10.101Z,102423.20
2019-04-14T08:27:37.223Z,102429.14
2019-04-14T08:30:05.300Z,102425.64
2019-04-14T08:32:32.378Z,102426.34
2019-04-14T08:34:59.477Z,102428.56
2019-04-14T08:37:26.619Z,102428.16
2019-04-14T08:39:53.677Z,102427.97
2019-04-14T08:42:38.036Z,102423.23
2019-04-14T08:45:31.266Z,102427.46
2019-04-14T08:48:35.912Z,102432.78
2019-04-14T08:51:11.502Z,102431.78
2019-04-14T08:53:51.475Z,102424.30
2019-04-14T08:56:40.916Z,102428.00
2019-04-14T08:59:36.722Z,102429.89
2019-04-14T09:02:25.683Z,102425.92
2019-04-14T09:05:12.381Z,102439.97
2019-04-14T09:07:52.889Z,102431.49
2019-04-14T09:10:26.388Z,102438.11
2019-04-14T09:12:55.110Z,102433.80
2019-04-14T09:15:22.184Z,102434.49
2019-04-14T09:17:49.276Z,102433.55
2019-04-14T09:20:16.332Z,102431.72
2019-04-14T09:22:43.410Z,102431.00
2019-04-14T09:25:10.515Z,102429.56
2019-04-14T09:27:37.628Z,102441.41
2019-04-14T09:30:05.315Z,102437.11
2019-04-14T09:32:32.415Z,102435.67
2019-04-14T09:34:59.458Z,102431.57
2019-04-14T09:37:26.536Z,102439.84
2019-04-14T09:39:53.684Z,102436.28
2019-04-14T09:42:20.743Z,102436.00
2019-04-14T09:44:47.794Z,102441.02
2019-04-14T09:47:14.893Z,102434.64
2019-04-14T09:49:42.303Z,102439.05
2019-04-14T09:52:09.385Z,102435.35
2019-04-14T09:54:43.962Z,102423.94
2019-04-14T09:57:11.072Z,102431.28
2019-04-14T09:59:38.137Z,102425.00
2019-04-14T10:02:05.592Z,102431.41
2019-04-14T10:04:32.767Z,102422.57
2019-04-14T10:06:59.859Z,102420.72
2019-04-14T10:09:27.161Z,102425.61
2019-04-14T10:11:56.423Z,102427.59
2019-04-14T10:14:23.291Z,102430.45
2019-04-14T10:16:50.368Z,102425.54
2019-04-14T10:19:33.400Z,102423.32
2019-04-14T10:22:00.504Z,102426.69
2019-04-14T10:24:27.627Z,102426.01
2019-04-14T10:26:54.700Z,102429.55
2019-04-14T10:29:21.803Z,102421.08
2019-04-14T10:31:48.878Z,102424.38
2019-04-14T10:34:15.939Z,102416.65
2019-04-14T10:36:43.278Z,102418.95
2019-04-14T10:39:10.343Z,102431.06
2019-04-14T10:41:37.405Z,102423.47
2019-04-14T10:44:04.506Z,102425.53
2019-04-14T10:46:31.600Z,102420.84
2019-04-14T10:48:58.710Z,102415.11
2019-04-14T10:51:30.244Z,102409.58
2019-04-14T10:53:54.759Z,102412.28
2019-04-14T10:56:21.842Z,102409.72
2019-04-14T10:58:48.952Z,102416.33
2019-04-14T11:01:16.146Z,102406.35
2019-04-14T11:03:43.491Z,102411.20
2019-04-14T11:06:24.913Z,102411.38
2019-04-14T11:08:52.049Z,102411.61
2019-04-14T11:11:19.143Z,102412.72
2019-04-14T11:13:46.244Z,102417.27
2019-04-14T11:16:13.697Z,102414.41
2019-04-14T11:18:46.126Z,102421.81
2019-04-14T11:21:13.504Z,102415.30
2019-04-14T11:23:40.999Z,102409.32
2019-04-14T11:26:08.064Z,102405.28
2019-04-14T11:28:35.134Z,102404.83
2019-04-14T11:31:02.182Z,102403.02
2019-04-14T11:33:34.648Z,102399.72
2019-04-14T11:36:30.043Z,102404.44
2019-04-14T11:39:09.073Z,102402.29
2019-04-14T11:41:36.300Z,102399.17
2019-04-14T11:44:03.660Z,102399.52
2019-04-14T11:46:31.032Z,102399.16
2019-04-14T11:48:58.110Z,102401.60
2019-04-14T11:51:25.499Z,102403.75
2019-04-14T11:53:52.613Z,102403.63
2019-04-14T11:56:19.687Z,102404.83
2019-04-14T11:58:46.788Z,102399.03
2019-04-14T12:01:31.892Z,102396.45
2019-04-14T12:04:14.152Z,102394.23
2019-04-14T12:07:18.935Z,102387.58
2019-04-14T12:09:50.791Z,102392.34
2019-04-14T12:12:17.832Z,102388.81
2019-04-14T12:14:44.914Z,102385.67
2019-04-14T12:17:11.991Z,102389.55
2019-04-14T12:19:39.063Z,102397.61
2019-04-14T12:22:08.633Z,102388.28
2019-04-14T12:24:35.135Z,102393.26
2019-04-14T12:27:06.957Z,102392.58
2019-04-14T12:29:34.786Z,102392.44
2019-04-14T12:32:03.874Z,102396.41
2019-04-14T12:34:31.041Z,102396.63
2019-04-14T12:36:58.131Z,102406.94
2019-04-14T12:39:25.296Z,102399.48
2019-04-14T12:42:05.093Z,102392.34
2019-04-14T12:44:50.306Z,102390.72
2019-04-14T12:47:40.128Z,102396.75
2019-04-14T12:50:10.270Z,102394.75
2019-04-14T12:52:37.343Z,102398.77
2019-04-14T12:55:04.854Z,102399.81
2019-04-14T12:57:34.369Z,102396.59
2019-04-14T13:00:01.491Z,102390.64
2019-04-14T13:02:31.406Z,102386.11
2019-04-14T13:04:58.423Z,102390.77
2019-04-14T13:07:25.500Z,102385.28
2019-04-14T13:09:52.542Z,102384.34
2019-04-14T13:12:19.823Z,102383.80
2019-04-14T13:14:47.071Z,102376.39
2019-04-14T13:17:14.146Z,102383.81
2019-04-14T13:19:41.463Z,102383.70
2019-04-14T13:22:09.543Z,102376.08
2019-04-14T13:24:36.583Z,102377.39
2019-04-14T13:27:03.886Z,102358.69
2019-04-14T13:29:30.926Z,102373.22
2019-04-14T13:31:58.066Z,102356.63
2019-04-14T13:34:25.156Z,102351.28
2019-04-14T13:36:52.231Z,102352.34
2019-04-14T13:39:19.352Z,102353.19
2019-04-14T13:41:46.458Z,102361.14
2019-04-14T13:44:13.513Z,102362.24
2019-04-14T13:46:40.670Z,102369.91
2019-04-14T13:49:07.778Z,102359.33
2019-04-14T13:51:34.830Z,102349.34
2019-04-14T13:54:02.155Z,102344.60
2019-04-14T13:56:29.234Z,102347.38
2019-04-14T13:58:56.276Z,102339.45
2019-04-14T14:01:23.365Z,102336.50
2019-04-14T14:03:50.488Z,102343.03
2019-04-14T14:06:17.516Z,102348.59
2019-04-14T14:08:44.555Z,102344.44
2019-04-14T14:11:39.923Z,102345.13
2019-04-14T14:14:26.580Z,102334.59
2019-04-14T14:17:22.347Z,102337.11
2019-04-14T14:20:20.959Z,102328.52
2019-04-14T14:22:59.886Z,102324.58
2019-04-14T14:25:31.838Z,102324.58
2019-04-14T14:27:58.915Z,102319.27
2019-04-14T14:30:25.992Z,102324.06
2019-04-14T14:32:53.068Z,102323.08
2019-04-14T14:35:20.140Z,102335.08
2019-04-14T14:37:47.242Z,102333.54
2019-04-14T14:40:14.919Z,102331.27
2019-04-14T14:42:42.003Z,102330.31
2019-04-14T14:45:17.147Z,102320.41
2019-04-14T14:47:50.469Z,102321.02
2019-04-14T14:50:21.777Z,102321.41
2019-04-14T14:52:49.026Z,102319.38
2019-04-14T14:55:16.113Z,102314.78
2019-04-14T14:57:43.223Z,102321.00
2019-04-14T15:00:30.479Z,102329.16
2019-04-14T15:02:57.647Z,102324.72
2019-04-14T15:05:24.726Z,102326.14
2019-04-14T15:07:51.811Z,102330.53
2019-04-14T15:10:18.924Z,102337.19
2019-04-14T15:12:46.013Z,102335.49
2019-04-14T15:15:13.211Z,102340.47
2019-04-14T15:17:40.371Z,102331.31
2019-04-14T15:20:07.541Z,102334.01
2019-04-14T15:22:34.619Z,102331.73
2019-04-14T15:25:01.703Z,102333.16
2019-04-14T15:27:28.764Z,102336.50
2019-04-14T15:29:55.902Z,102336.61
2019-04-14T15:32:22.976Z,102338.09
2019-04-14T15:34:50.061Z,102340.09
2019-04-14T15:37:17.144Z,102337.44
2019-04-14T15:39:44.268Z,102338.98
2019-04-14T15:42:11.370Z,102340.53
2019-04-14T15:44:38.504Z,102339.85
2019-04-14T15:47:05.677Z,102345.43
2019-04-14T15:49:32.795Z,102352.16
2019-04-14T15:51:59.917Z,102348.99
2019-04-14T15:54:27.024Z,102355.23
2019-04-14T15:57:10.563Z,102360.89
2019-04-14T16:00:02.149Z,102364.42
2019-04-14T16:02:34.230Z,102365.33
2019-04-14T16:05:17.530Z,102364.06
2019-04-14T16:08:07.052Z,102365.15
2019-04-14T16:11:02.677Z,102362.75
2019-04-14T16:13:33.544Z,102364.19
2019-04-14T16:16:10.209Z,102367.79
2019-04-14T16:19:12.783Z,102368.50
2019-04-14T16:21:39.890Z,102371.66
2019-04-14T16:24:07.203Z,102373.23
2019-04-14T16:27:02.919Z,102377.03
2019-04-14T16:29:35.226Z,102384.12
2019-04-14T16:32:27.698Z,102392.17
2019-04-14T16:35:05.181Z,102398.88
2019-04-14T16:37:32.267Z,102400.05
2019-04-14T16:39:59.312Z,102393.30
2019-04-14T16:42:26.386Z,102401.09
2019-04-14T16:44:53.579Z,102403.98
2019-04-14T16:47:20.923Z,102398.73
2019-04-14T16:49:47.977Z,102400.62
2019-04-14T16:52:38.340Z,102401.20
2019-04-14T16:55:15.423Z,102399.99
2019-04-14T16:58:07.967Z,102408.78
2019-04-14T17:00:37.871Z,102410.74
2019-04-14T17:03:04.962Z,102422.56
2019-04-14T17:05:32.045Z,102426.01
2019-04-14T17:07:59.100Z,102422.33
2019-04-14T17:10:26.209Z,102423.09
2019-04-14T17:12:53.444Z,102433.84
2019-04-14T17:16:02.285Z,102433.91
2019-04-14T17:18:43.332Z,102431.62
2019-04-14T17:21:35.881Z,102438.41
2019-04-14T17:24:22.522Z,102436.03
2019-04-14T17:26:57.035Z,102440.66
2019-04-14T17:29:43.680Z,102436.87
2019-04-14T17:32:30.349Z,102434.59
2019-04-14T17:35:07.282Z,102426.28
2019-04-14T17:37:48.007Z,102428.39
2019-04-14T17:40:37.324Z,102419.30
2019-04-14T17:43:08.998Z,102420.53
2019-04-14T17:46:04.531Z,102422.75
2019-04-14T17:49:00.258Z,102421.62
2019-04-14T17:51:35.645Z,102431.50
2019-04-14T17:54:13.362Z,102434.15
2019-04-14T17:56:49.260Z,102433.52
2019-04-14T17:59:29.765Z,102440.20
2019-04-14T18:02:01.149Z,102440.80
2019-04-14T18:04:50.718Z,102452.14
2019-04-14T18:07:21.255Z,102454.52
2019-04-14T18:10:13.681Z,102464.62
2019-04-14T18:12:56.960Z,102462.16
2019-04-14T18:15:45.505Z,102464.94
2019-04-14T18:18:35.042Z,102460.66
2019-04-14T18:21:05.102Z,102467.71
2019-04-14T18:23:32.364Z,102469.80
2019-04-14T18:25:59.534Z,102475.61
2019-04-14T18:28:44.114Z,102469.20
2019-04-14T18:31:33.514Z,102470.89
2019-04-14T18:34:29.068Z,102480.38
2019-04-14T18:36:59.451Z,102485.45
2019-04-14T18:39:44.782Z,102479.36
2019-04-14T18:42:31.446Z,102483.79
2019-04-14T18:45:14.042Z,102487.37
2019-04-14T18:47:46.547Z,102487.84
2019-04-14T18:50:19.352Z,102502.13
2019-04-14T18:52:59.976Z,102500.96
2019-04-14T18:55:52.830Z,102507.34
2019-04-14T18:58:39.537Z,102506.16
2019-04-14T19:01:15.606Z,102512.23
2019-04-14T19:03:42.942Z,102525.47
2019-04-14T19:06:10.237Z,102536.77
2019-04-14T19:08:37.330Z,102532.19
2019-04-14T19:11:22.926Z,102536.97
2019-04-14T19:13:51.604Z,102539.31
2019-04-14T19:16:39.919Z,102539.25
2019-04-14T19:19:07.148Z,102540.17
2019-04-14T19:21:36.634Z,102549.26
2019-04-14T19:24:03.767Z,102553.69
2019-04-14T19:26:30.971Z,102544.39
2019-04-14T19:28:58.030Z,102542.27
2019-04-14T19:31:25.603Z,102550.33
2019-04-14T19:33:53.323Z,102553.73
2019-04-14T19:36:20.351Z,102555.13
2019-04-14T19:38:47.473Z,102556.63
2019-04-14T19:41:14.570Z,102561.56
2019-04-14T19:43:41.696Z,102558.53
2019-04-14T19:46:08.843Z,102561.34
2019-04-14T19:48:36.245Z,102556.09
2019-04-14T19:51:03.338Z,102562.84
2019-04-14T19:53:36.184Z,102567.09
2019-04-14T19:56:03.362Z,102563.66
2019-04-14T19:58:30.494Z,102567.80
2019-04-14T20:00:58.001Z,102574.77
2019-04-14T20:03:25.127Z,102584.25
2019-04-14T20:05:52.255Z,102591.70
2019-04-14T20:08:19.457Z,102597.95
2019-04-14T20:10:46.747Z,102596.02
2019-04-14T20:13:13.820Z,102610.03
2019-04-14T20:15:55.482Z,102609.75
2019-04-14T20:18:39.825Z,102607.62
2019-04-14T20:21:20.577Z,102609.44
2019-04-14T20:24:19.041Z,102600.36
2019-04-14T20:26:54.360Z,102590.27
2019-04-14T20:29:25.024Z,102590.96
2019-04-14T20:31:59.293Z,102582.91
2019-04-14T20:34:26.445Z,102583.41
2019-04-14T20:36:53.683Z,102578.98
2019-04-14T20:39:21.250Z,102578.57
2019-04-14T20:41:48.573Z,102579.88
2019-04-14T20:44:15.749Z,102583.31
2019-04-14T20:46:45.066Z,102589.06
2019-04-14T20:49:12.439Z,102589.56
2019-04-14T20:51:39.582Z,102591.18
2019-04-14T20:54:06.758Z,102598.86
2019-04-14T20:56:35.032Z,102590.09
2019-04-14T20:59:33.012Z,102591.89
2019-04-14T21:02:18.420Z,102588.28
2019-04-14T21:04:53.123Z,102594.23
2019-04-14T21:07:39.811Z,102593.45
2019-04-14T21:10:29.429Z,102591.55
2019-04-14T21:13:14.695Z,102592.76
2019-04-14T21:15:46.256Z,102591.45
2019-04-14T21:18:31.181Z,102601.93
2019-04-14T21:21:08.216Z,102607.98
2019-04-14T21:23:54.867Z,102612.53
2019-04-14T21:26:49.188Z,102619.89
2019-04-14T21:29:34.456Z,102618.48
2019-04-14T21:32:10.177Z,102618.08
2019-04-14T21:35:23.138Z,102605.79
2019-04-14T21:37:57.427Z,102609.52
2019-04-14T21:40:42.705Z,102607.48
2019-04-14T21:43:09.898Z,102604.77
2019-04-14T21:45:37.007Z,102609.31
2019-04-14T21:48:04.152Z,102609.81
2019-04-14T21:50:31.350Z,102612.14
2019-04-14T21:52:58.657Z,102604.69
2019-04-14T21:55:25.782Z,102599.97
2019-04-14T21:58:01.068Z,102599.88
2019-04-14T22:01:24.660Z,102595.97
2019-04-14T22:04:15.254Z,102599.91
2019-04-14T22:06:43.944Z,102599.31
2019-04-14T22:09:17.479Z,102598.72
2019-04-14T22:11:44.771Z,102602.14
2019-04-14T22:14:11.861Z,102607.66
2019-04-14T22:16:38.953Z,102611.47
2019-04-14T22:19:24.555Z,102610.14
2019-04-14T22:21:51.602Z,102614.35
2019-04-14T22:24:18.666Z,102609.56
2019-04-14T22:26:45.763Z,102607.11
2019-04-14T22:29:12.824Z,102614.02
2019-04-14T22:31:39.916Z,102614.11
2019-04-14T22:34:06.997Z,102619.70
2019-04-14T22:36:34.097Z,102619.87
2019-04-14T22:39:01.510Z,102629.66
2019-04-14T22:41:33.375Z,102633.95
2019-04-14T22:44:00.499Z,102627.23
2019-04-14T22:46:27.571Z,102627.38
2019-04-14T22:48:54.655Z,102625.34
2019-04-14T22:51:21.988Z,102628.02
2019-04-14T22:53:49.131Z,102635.52
2019-04-14T22:56:16.225Z,102636.27
2019-04-14T22:58:43.451Z,102642.24
2019-04-14T23:01:23.199Z,102648.72
2019-04-14T23:04:09.854Z,102649.97
2019-04-14T23:07:05.421Z,102655.13
2019-04-14T23:09:49.160Z,102663.77
2019-04-14T23:12:37.315Z,102668.81
2019-04-14T23:15:42.613Z,102661.09
2019-04-14T23:18:29.273Z,102662.50
2019-04-14T23:21:18.860Z,102666.90
2019-04-14T23:24:03.661Z,102675.72
2019-04-14T23:26:30.806Z,102670.70
2019-04-14T23:28:59.011Z,102673.00
2019-04-14T23:31:26.164Z,102673.79
2019-04-14T23:33:53.210Z,102685.20
2019-04-14T23:36:20.273Z,102688.83
2019-04-14T23:38:47.359Z,102690.45
2019-04-14T23:41:14.558Z,102682.91
2019-04-14T23:43:41.605Z,102674.42
2019-04-14T23:46:12.909Z,102671.53
2019-04-14T23:48:39.987Z,102672.48
2019-04-14T23:51:14.320Z,102677.46
2019-04-14T23:53:41.374Z,102680.42
2019-04-14T23:56:08.450Z,102685.97
2019-04-14T23:58:35.560Z,102679.73
